Time;durP1;ratioP1;P1;durP2;ratioP2;P2;SDS_P1;SDS_P2;PMS_P1;PMS_P2;Temp;Humidity;BMP_temperature;BMP_pressure;BME280_temperature;BME280_humidity;BME280_pressure;Samples;Min_cycle;Max_cycle;Signal;HPM_P1;HPM_P2
2021/12/13 00:01:47;;;;;;;89.85;21.13;;;2.90;99.90;;;;;;4979206;28;20108;-82
2021/12/13 00:04:22;;;;;;;299.95;34.33;;;2.80;99.90;;;;;;4978745;28;20038;-82
2021/12/13 00:07:13;;;;;;;66.72;24.23;;;2.90;99.90;;;;;;4995195;28;20041;-82
2021/12/13 00:09:48;;;;;;;114.68;24.73;;;2.90;99.90;;;;;;5012820;28;20109;-83
2021/12/13 00:12:21;;;;;;;854.13;61.15;;;2.90;99.90;;;;;;4979182;28;20145;-83
2021/12/13 00:14:50;;;;;;;457.85;42.90;;;2.90;99.90;;;;;;5012814;28;20026;-83
2021/12/13 00:17:21;;;;;;;770.40;54.75;;;2.90;99.90;;;;;;4998734;28;20033;-83
2021/12/13 00:20:13;;;;;;;251.90;34.05;;;2.90;99.90;;;;;;4982758;28;20504;-83
2021/12/13 00:22:46;;;;;;;229.48;30.75;;;2.90;99.90;;;;;;4982471;28;20038;-83
2021/12/13 00:25:26;;;;;;;387.13;40.25;;;2.90;99.90;;;;;;4982792;28;20070;-83
2021/12/13 00:27:59;;;;;;;353.75;33.78;;;2.90;99.90;;;;;;4998949;28;20045;-83
2021/12/13 00:30:46;;;;;;;73.95;26.02;;;2.90;99.90;;;;;;4982879;28;20460;-83
2021/12/13 00:33:19;;;;;;;393.45;44.00;;;2.80;99.90;;;;;;4998137;28;20057;-83
2021/12/13 00:35:52;;;;;;;88.85;26.98;;;2.90;99.90;;;;;;4982404;28;20022;-83
2021/12/13 00:38:22;;;;;;;587.13;59.03;;;2.90;99.90;;;;;;4998812;28;20155;-83
2021/12/13 00:41:01;;;;;;;73.68;27.27;;;2.90;99.90;;;;;;4998510;28;20029;-83
2021/12/13 00:43:40;;;;;;;75.70;28.30;;;2.90;99.90;;;;;;4981846;28;20033;-83
2021/12/13 00:46:10;;;;;;;86.18;32.22;;;2.90;99.90;;;;;;4998024;28;20173;-83
2021/12/13 00:48:39;;;;;;;524.17;49.55;;;2.90;99.90;;;;;;4981821;28;20129;-82
2021/12/13 00:51:08;;;;;;;830.20;60.85;;;2.90;99.90;;;;;;4981535;28;20116;-83
2021/12/13 01:09:15;;;;;;;763.17;57.10;;;2.90;99.90;;;;;;5015317;28;20529;-83
2021/12/13 01:11:53;;;;;;;177.65;28.08;;;2.90;99.90;;;;;;4982037;28;20030;-85
2021/12/13 01:14:28;;;;;;;196.60;32.15;;;2.90;99.90;;;;;;4997844;28;20026;-83
2021/12/13 01:17:05;;;;;;;265.48;31.02;;;3.00;99.90;;;;;;4982091;28;20029;-83
2021/12/13 01:19:53;;;;;;;348.40;34.22;;;3.00;99.90;;;;;;4981605;28;20124;-83
2021/12/13 01:27:46;;;;;;;379.02;34.53;;;3.00;99.90;;;;;;4997237;28;20038;-83
2021/12/13 01:30:15;;;;;;;292.70;31.15;;;3.00;99.90;;;;;;4981361;28;20072;-83
2021/12/13 01:32:46;;;;;;;324.27;28.92;;;3.00;99.90;;;;;;4980917;28;20092;-83
2021/12/13 01:35:17;;;;;;;469.35;32.58;;;3.00;99.90;;;;;;4981262;28;20068;-83
2021/12/13 01:37:50;;;;;;;85.53;19.77;;;3.10;99.90;;;;;;4981375;28;20033;-82
2021/12/13 01:40:18;;;;;;;383.38;32.22;;;3.00;99.90;;;;;;4981019;28;20053;-83
2021/12/13 01:42:44;;;;;;;191.15;26.33;;;3.00;99.90;;;;;;4997397;28;20033;-83
2021/12/13 01:45:14;;;;;;;373.58;37.33;;;3.00;99.90;;;;;;4980801;28;20034;-83
2021/12/13 01:47:44;;;;;;;797.40;55.05;;;3.10;99.90;;;;;;4997250;28;20184;-83
2021/12/13 01:50:29;;;;;;;164.88;21.92;;;3.10;99.90;;;;;;4997290;28;20061;-83
2021/12/13 01:52:56;;;;;;;423.40;34.83;;;3.10;99.90;;;;;;5014603;28;20038;-83
2021/12/13 01:55:33;;;;;;;695.30;44.85;;;3.10;99.90;;;;;;4980519;28;20034;-83
2021/12/13 02:01:11;;;;;;;682.88;45.70;;;3.10;99.90;;;;;;4996962;28;20036;-83
2021/12/13 02:03:53;;;;;;;479.70;37.55;;;3.10;99.90;;;;;;4980668;28;20049;-83
2021/12/13 02:06:36;;;;;;;860.47;57.45;;;3.10;99.90;;;;;;4980369;28;20118;-83
2021/12/13 02:09:08;;;;;;;799.72;51.85;;;3.10;99.90;;;;;;4980600;28;20037;-83
2021/12/13 02:11:36;;;;;;;772.75;47.25;;;3.10;99.90;;;;;;5014202;28;20065;-83
2021/12/13 02:14:12;;;;;;;638.95;40.20;;;3.10;99.90;;;;;;4980234;28;20034;-83
2021/12/13 02:17:10;;;;;;;421.17;31.85;;;3.10;99.90;;;;;;4996782;28;20061;-83
2021/12/13 02:20:00;;;;;;;743.35;48.72;;;3.10;99.90;;;;;;4980539;28;20029;-83
2021/12/13 02:22:41;;;;;;;458.42;31.00;;;3.20;99.90;;;;;;4980303;28;20037;-84
2021/12/13 02:25:06;;;;;;;826.75;47.55;;;3.20;99.90;;;;;;4996335;28;20042;-83
2021/12/13 02:27:36;;;;;;;730.10;44.08;;;3.10;99.90;;;;;;5013987;28;20029;-83
2021/12/13 02:30:09;;;;;;;600.88;36.47;;;3.20;99.90;;;;;;4980199;28;20033;-83
2021/12/13 02:32:35;;;;;;;767.83;45.72;;;3.20;99.90;;;;;;4995751;28;20038;-83
2021/12/13 02:35:05;;;;;;;490.70;32.72;;;3.10;99.90;;;;;;4979786;28;20022;-83
2021/12/13 02:37:32;;;;;;;861.75;49.75;;;3.20;99.90;;;;;;4995987;28;20032;-83
2021/12/13 02:39:59;;;;;;;689.35;39.28;;;3.20;99.90;;;;;;4979681;28;20025;-83
2021/12/13 02:42:27;;;;;;;580.38;93.97;;;3.20;99.90;;;;;;4996299;28;20474;-84
2021/12/13 02:45:01;;;;;;;1420.22;296.73;;;3.20;99.90;;;;;;4995939;28;20394;-83
2021/12/13 02:47:36;;;;;;;431.60;55.97;;;3.20;99.90;;;;;;4996148;28;20230;-84
2021/12/13 02:50:05;;;;;;;370.63;39.58;;;3.20;99.90;;;;;;4980052;28;20120;-83
2021/12/13 02:52:31;;;;;;;437.65;32.80;;;3.30;99.90;;;;;;4979842;28;20054;-83
2021/12/13 02:55:02;;;;;;;256.38;27.15;;;3.30;99.90;;;;;;4995947;28;20077;-84
2021/12/13 02:57:41;;;;;;;734.17;50.20;;;3.30;99.90;;;;;;4979997;28;20033;-84
2021/12/13 03:00:10;;;;;;;586.70;42.00;;;3.30;99.90;;;;;;4995978;28;20044;-83
2021/12/13 03:02:41;;;;;;;641.97;39.90;;;3.30;99.90;;;;;;4995853;28;20516;-84
2021/12/13 03:05:18;;;;;;;948.80;51.90;;;3.30;99.90;;;;;;4979604;28;20497;-84
2021/12/13 03:07:50;;;;;;;1243.82;74.47;;;3.30;99.90;;;;;;4979881;28;20045;-83
2021/12/13 03:10:36;;;;;;;500.95;40.78;;;3.30;99.90;;;;;;4979809;28;20048;-83
2021/12/13 03:13:02;;;;;;;1339.60;77.00;;;3.40;99.90;;;;;;4979619;28;20064;-83
2021/12/13 03:15:33;;;;;;;978.40;57.05;;;3.30;99.90;;;;;;4979519;28;20029;-83
2021/12/13 03:18:12;;;;;;;803.20;48.60;;;3.40;99.90;;;;;;5013640;28;20473;-83
2021/12/13 03:21:00;;;;;;;904.08;52.50;;;3.30;99.90;;;;;;5013707;28;20037;-84
2021/12/13 03:23:48;;;;;;;495.73;35.65;;;3.30;99.90;;;;;;4979569;28;20129;-83
2021/12/13 03:26:50;;;;;;;726.75;50.55;;;3.30;99.90;;;;;;4979752;28;20033;-83
2021/12/13 03:29:34;;;;;;;1137.55;65.25;;;3.30;99.90;;;;;;4979691;28;20773;-83
2021/12/13 03:32:00;;;;;;;941.15;56.08;;;3.30;99.90;;;;;;4995444;28;20076;-83
2021/12/13 03:34:30;;;;;;;820.63;58.78;;;3.40;99.90;;;;;;4979455;28;20033;-84
2021/12/13 03:37:09;;;;;;;734.55;49.30;;;3.40;99.90;;;;;;4979783;28;20504;-84
2021/12/13 03:39:40;;;;;;;694.22;57.67;;;3.40;99.90;;;;;;4995797;28;20092;-84
2021/12/13 03:42:16;;;;;;;795.35;54.97;;;3.40;99.90;;;;;;4979613;28;20030;-83
2021/12/13 03:44:47;;;;;;;558.45;41.33;;;3.50;99.90;;;;;;4995632;28;20030;-84
2021/12/13 03:47:21;;;;;;;1033.57;72.55;;;3.40;99.90;;;;;;4996152;28;20030;-84
2021/12/13 03:49:50;;;;;;;336.95;39.03;;;3.50;99.90;;;;;;4980905;28;20040;-83
2021/12/13 03:52:20;;;;;;;1044.22;74.15;;;3.50;99.90;;;;;;4999583;28;20108;-83
2021/12/13 03:54:47;;;;;;;797.38;58.22;;;3.50;99.90;;;;;;4983236;28;20045;-83
2021/12/13 03:57:17;;;;;;;1012.03;74.60;;;3.40;99.90;;;;;;4983478;28;20025;-83
2021/12/13 03:59:44;;;;;;;1326.57;87.95;;;3.40;99.90;;;;;;4983206;28;20033;-84
2021/12/13 04:02:23;;;;;;;935.97;63.40;;;3.40;99.90;;;;;;4999390;28;20033;-84
2021/12/13 04:04:55;;;;;;;450.05;42.72;;;3.50;99.90;;;;;;4999215;28;20080;-84
2021/12/13 04:07:25;;;;;;;857.03;66.00;;;3.50;99.90;;;;;;4999224;28;20029;-84
2021/12/13 04:09:55;;;;;;;91.75;26.83;;;3.40;99.90;;;;;;4983351;28;20026;-84
2021/12/13 04:12:39;;;;;;;845.97;61.13;;;3.40;99.90;;;;;;4982783;28;20120;-83
2021/12/13 04:15:34;;;;;;;200.52;30.13;;;3.50;99.90;;;;;;4999126;28;20116;-84
2021/12/13 04:18:16;;;;;;;166.13;28.65;;;3.50;99.90;;;;;;4982880;28;20034;-83
2021/12/13 04:20:44;;;;;;;53.45;18.42;;;3.50;99.90;;;;;;4998990;28;20363;-83
2021/12/13 04:23:29;;;;;;;72.22;22.08;;;3.50;99.90;;;;;;4999101;28;20030;-83
2021/12/13 04:25:56;;;;;;;63.50;21.08;;;3.50;99.90;;;;;;4982887;28;20049;-83
2021/12/13 04:28:38;;;;;;;131.13;26.92;;;3.50;99.90;;;;;;4999041;28;20561;-84
2021/12/13 04:31:07;;;;;;;77.35;25.80;;;3.60;99.90;;;;;;4998590;28;20045;-83
2021/12/13 04:33:43;;;;;;;104.47;24.17;;;3.60;99.90;;;;;;4998580;28;20034;-83
2021/12/13 04:36:19;;;;;;;80.30;26.67;;;3.60;99.90;;;;;;4982572;28;20477;-84
2021/12/13 04:38:51;;;;;;;685.75;51.60;;;3.60;99.90;;;;;;4982459;28;20030;-84
2021/12/13 04:41:34;;;;;;;936.83;62.47;;;3.60;99.90;;;;;;4998848;28;20092;-84
2021/12/13 04:44:20;;;;;;;1120.18;71.38;;;3.60;99.90;;;;;;4998456;28;20030;-83
2021/12/13 04:46:51;;;;;;;348.20;36.63;;;3.60;99.90;;;;;;4982512;28;20125;-84
2021/12/13 04:49:20;;;;;;;459.85;44.38;;;3.50;99.90;;;;;;4982372;28;20177;-83
2021/12/13 04:51:56;;;;;;;953.22;60.92;;;3.60;99.90;;;;;;4982498;28;20045;-84
2021/12/13 04:54:24;;;;;;;716.50;56.08;;;3.50;99.90;;;;;;4998338;28;20392;-84
2021/12/13 04:56:52;;;;;;;143.73;29.50;;;3.50;99.90;;;;;;4998438;28;20034;-84
2021/12/13 04:59:18;;;;;;;652.72;53.80;;;3.50;99.90;;;;;;4998366;28;20745;-84
2021/12/13 05:01:47;;;;;;;497.13;42.53;;;3.50;99.90;;;;;;4981311;28;20057;-83
2021/12/13 05:04:15;;;;;;;611.05;46.20;;;3.50;99.90;;;;;;4981865;28;20049;-83
2021/12/13 05:06:41;;;;;;;405.52;40.08;;;3.50;99.90;;;;;;4998270;28;20112;-83
2021/12/13 05:09:11;;;;;;;510.98;43.40;;;3.60;99.90;;;;;;4997844;28;20044;-84
2021/12/13 05:12:09;;;;;;;69.82;23.20;;;3.60;99.90;;;;;;4981836;28;20042;-84
2021/12/13 05:14:45;;;;;;;100.63;21.63;;;3.60;99.90;;;;;;4990311;28;20434;-83
2021/12/13 05:17:23;;;;;;;346.02;34.85;;;3.50;99.90;;;;;;4981553;28;20478;-83
2021/12/13 05:20:00;;;;;;;80.38;24.15;;;3.50;99.90;;;;;;4997753;28;20033;-83
2021/12/13 05:22:28;;;;;;;141.88;31.50;;;3.50;99.90;;;;;;4981849;28;20485;-83
2021/12/13 05:24:59;;;;;;;175.82;28.77;;;3.60;99.90;;;;;;4997399;28;20077;-83
2021/12/13 05:27:35;;;;;;;141.10;25.20;;;3.60;99.90;;;;;;4997855;28;20040;-83
2021/12/13 05:30:21;;;;;;;98.80;26.77;;;3.60;99.90;;;;;;4997748;28;20034;-83
2021/12/13 05:32:51;;;;;;;82.82;25.73;;;3.60;99.90;;;;;;4980758;28;20040;-83
2021/12/13 05:35:26;;;;;;;88.03;25.60;;;3.60;99.90;;;;;;4997253;28;20088;-83
2021/12/13 05:38:02;;;;;;;132.65;25.55;;;3.60;99.90;;;;;;4981198;28;20029;-83
2021/12/13 05:40:44;;;;;;;177.30;28.65;;;3.60;99.90;;;;;;4981097;28;20125;-83
2021/12/13 05:43:19;;;;;;;70.22;23.83;;;3.60;99.90;;;;;;4981125;28;20382;-83
2021/12/13 05:45:50;;;;;;;117.78;31.30;;;3.60;99.90;;;;;;4981059;28;20034;-83
2021/12/13 05:48:23;;;;;;;;;;;3.60;99.90;;;;;;4981383;28;20124;-83
2021/12/13 05:50:56;;;;;;;283.17;43.80;;;3.70;99.90;;;;;;4997209;28;19910;-83
2021/12/13 05:53:54;;;;;;;170.45;35.08;;;3.70;99.90;;;;;;4980705;28;20046;-83
2021/12/13 05:56:21;;;;;;;88.47;24.83;;;3.70;99.90;;;;;;4903330;29;20044;-83
2021/12/13 05:59:07;;;;;;;277.38;35.17;;;3.70;99.90;;;;;;4903861;29;20059;-83
2021/12/13 06:01:58;;;;;;;283.42;33.70;;;3.70;99.90;;;;;;5011678;28;20033;-83
2021/12/13 06:04:34;;;;;;;134.75;30.65;;;3.70;99.90;;;;;;4996568;28;20034;-83
2021/12/13 06:07:00;;;;;;;454.25;44.63;;;3.70;99.90;;;;;;4980597;28;20030;-83
2021/12/13 06:09:42;;;;;;;281.40;39.65;;;3.70;99.90;;;;;;4980567;28;20044;-83
2021/12/13 06:12:15;;;;;;;417.15;44.03;;;3.70;99.90;;;;;;4980598;28;20115;-83
2021/12/13 06:14:42;;;;;;;270.35;34.35;;;3.60;99.90;;;;;;4979772;28;20478;-83
2021/12/13 06:17:16;;;;;;;299.23;39.33;;;3.60;99.90;;;;;;4980581;28;20033;-84
2021/12/13 06:19:59;;;;;;;150.57;29.48;;;3.70;99.90;;;;;;4996477;28;20030;-84
2021/12/13 06:22:29;;;;;;;122.53;26.85;;;3.70;99.90;;;;;;4979233;28;20041;-84
2021/12/13 06:25:05;;;;;;;126.20;28.77;;;3.70;99.90;;;;;;4996266;28;20088;-84
2021/12/13 06:27:40;;;;;;;181.77;31.25;;;3.80;99.90;;;;;;4996348;28;20489;-84
2021/12/13 06:30:16;;;;;;;206.75;34.45;;;3.80;99.90;;;;;;4979505;28;20038;-83
2021/12/13 06:32:50;;;;;;;123.85;27.95;;;3.80;99.90;;;;;;4995462;28;20051;-84
2021/12/13 06:35:56;;;;;;;190.38;33.75;;;3.80;99.90;;;;;;4995838;28;20402;-84
2021/12/13 06:38:41;;;;;;;263.27;37.38;;;3.80;99.90;;;;;;4979880;28;20025;-84
2021/12/13 06:41:15;;;;;;;214.48;34.45;;;3.90;99.90;;;;;;4979698;28;20445;-84
2021/12/13 06:43:54;;;;;;;256.55;39.58;;;3.80;99.90;;;;;;4979397;28;20088;-84
2021/12/13 06:46:22;;;;;;;171.98;39.95;;;3.80;99.90;;;;;;4979634;28;20481;-84
2021/12/13 06:49:15;;;;;;;178.65;39.58;;;3.80;99.90;;;;;;4979066;28;20033;-84
2021/12/13 06:51:56;;;;;;;295.60;40.25;;;3.90;99.90;;;;;;4979622;28;20069;-83
2021/12/13 06:54:33;;;;;;;244.63;34.50;;;3.90;99.90;;;;;;4995566;28;20040;-84
2021/12/13 06:57:22;;;;;;;277.83;37.97;;;3.90;99.90;;;;;;5013024;28;20108;-84
2021/12/13 07:00:11;;;;;;;354.02;40.80;;;3.80;99.90;;;;;;4995652;28;20174;-84
2021/12/13 07:02:51;;;;;;;429.25;47.20;;;3.70;99.90;;;;;;4979428;28;20053;-84
2021/12/13 07:05:23;;;;;;;379.20;43.70;;;3.70;99.90;;;;;;4979570;28;20092;-84
2021/12/13 07:08:00;;;;;;;352.45;42.72;;;3.60;99.90;;;;;;4979360;28;20038;-84
2021/12/13 07:10:37;;;;;;;134.52;32.40;;;3.60;99.90;;;;;;4978903;28;20128;-84
2021/12/13 07:13:10;;;;;;;113.43;31.67;;;3.60;99.90;;;;;;4979430;28;20034;-85
2021/12/13 07:15:40;;;;;;;269.08;40.88;;;3.60;99.90;;;;;;4979253;28;20030;-84
2021/12/13 07:18:21;;;;;;;390.77;48.53;;;3.70;99.90;;;;;;4978181;28;20040;-84
2021/12/13 07:20:53;;;;;;;372.52;43.63;;;3.60;99.90;;;;;;4995865;28;20544;-85
2021/12/13 07:23:20;;;;;;;95.80;29.63;;;3.70;99.90;;;;;;4979879;28;20034;-85
2021/12/13 07:25:50;;;;;;;342.45;42.35;;;3.70;99.90;;;;;;4995562;28;20137;-85
2021/12/13 07:28:34;;;;;;;216.00;41.15;;;3.60;99.90;;;;;;4995670;28;20667;-85
2021/12/13 07:31:03;;;;;;;196.50;38.50;;;3.60;99.90;;;;;;4979384;28;20030;-85
2021/12/13 07:33:44;;;;;;;150.75;32.80;;;3.50;99.90;;;;;;4994853;28;20030;-84
2021/12/13 07:36:18;;;;;;;107.07;28.73;;;3.50;99.90;;;;;;4994859;28;20030;-85
2021/12/13 07:38:56;;;;;;;227.25;47.42;;;3.50;99.90;;;;;;4995920;28;20026;-85
2021/12/13 07:41:26;;;;;;;209.88;44.67;;;3.50;99.90;;;;;;4995880;28;20030;-85
2021/12/13 07:43:52;;;;;;;150.00;38.63;;;3.50;99.90;;;;;;4979607;28;20029;-85
2021/12/13 07:46:20;;;;;;;241.27;42.55;;;3.60;99.90;;;;;;4978971;28;20088;-84
2021/12/13 07:48:46;;;;;;;269.35;46.72;;;3.60;99.90;;;;;;4995189;28;20109;-84
2021/12/13 07:51:25;;;;;;;390.63;64.18;;;3.70;99.90;;;;;;4978866;28;20516;-85
2021/12/13 07:53:57;;;;;;;171.18;50.95;;;3.60;99.90;;;;;;4978765;28;20049;-85
2021/12/13 07:56:39;;;;;;;151.73;39.95;;;3.70;99.90;;;;;;4979117;28;20062;-85
2021/12/13 07:59:26;;;;;;;103.03;30.83;;;3.80;99.90;;;;;;4995252;28;20033;-85
2021/12/13 08:01:59;;;;;;;276.90;50.83;;;3.90;99.90;;;;;;4979257;28;20509;-85
2021/12/13 08:04:43;;;;;;;269.15;32.00;;;3.90;99.90;;;;;;4979053;28;20034;-85
2021/12/13 08:07:31;;;;;;;156.25;32.47;;;3.90;99.90;;;;;;4995180;28;20034;-84
2021/12/13 08:10:05;;;;;;;97.22;30.95;;;4.00;99.90;;;;;;4978969;28;20033;-84
2021/12/13 08:12:48;;;;;;;154.50;37.28;;;4.10;99.90;;;;;;4979122;28;20390;-85
2021/12/13 08:15:25;;;;;;;147.35;38.70;;;4.20;99.90;;;;;;4994774;28;20034;-84
2021/12/13 08:17:55;;;;;;;179.93;39.47;;;4.30;99.90;;;;;;4978937;28;20076;-85
2021/12/13 08:20:43;;;;;;;144.32;30.65;;;4.30;99.90;;;;;;4978897;28;20132;-84
2021/12/13 08:23:17;;;;;;;77.90;24.63;;;4.40;99.90;;;;;;4994812;28;20030;-85
2021/12/13 08:25:45;;;;;;;215.25;30.45;;;4.50;99.90;;;;;;4994968;28;20456;-85
2021/12/13 08:28:15;;;;;;;199.27;29.08;;;4.50;99.90;;;;;;4994908;28;20030;-85
2021/12/13 08:30:54;;;;;;;76.53;23.23;;;4.60;99.90;;;;;;4995165;28;20026;-84
2021/12/13 08:33:37;;;;;;;242.05;29.88;;;4.70;99.90;;;;;;4994625;28;20401;-85
2021/12/13 08:36:13;;;;;;;161.70;30.92;;;4.70;99.90;;;;;;4979354;28;20477;-86
2021/12/13 08:38:48;;;;;;;82.32;22.10;;;4.70;99.90;;;;;;4982382;28;20030;-78
2021/12/13 08:41:25;;;;;;;140.40;24.15;;;4.80;99.90;;;;;;4998486;28;20026;-85
2021/12/13 08:44:04;;;;;;;148.25;25.10;;;4.80;99.90;;;;;;4982286;28;20041;-85
2021/12/13 08:46:51;;;;;;;144.70;27.48;;;4.80;99.90;;;;;;4982340;28;20509;-85
2021/12/13 08:49:47;;;;;;;156.60;28.75;;;4.90;99.90;;;;;;4982164;28;20192;-85
2021/12/13 08:52:16;;;;;;;273.60;35.70;;;4.80;99.90;;;;;;4982073;28;20051;-85
2021/12/13 08:54:53;;;;;;;255.50;46.00;;;4.80;99.90;;;;;;4998407;28;20105;-85
2021/12/13 08:57:37;;;;;;;154.82;28.13;;;4.90;99.90;;;;;;4982137;28;20117;-85
2021/12/13 09:00:35;;;;;;;97.78;22.80;;;5.00;99.90;;;;;;4998112;28;20119;-85
2021/12/13 09:03:10;;;;;;;140.75;28.42;;;5.10;99.90;;;;;;4998232;28;20468;-85
2021/12/13 09:05:52;;;;;;;90.35;20.88;;;5.20;99.90;;;;;;4981895;28;20030;-85
2021/12/13 09:08:26;;;;;;;74.38;18.63;;;5.40;99.90;;;;;;4981814;28;20041;-85
2021/12/13 09:11:37;;;;;;;191.00;66.57;;;5.50;99.90;;;;;;4982153;28;20120;-85
2021/12/13 09:14:19;;;;;;;104.68;37.67;;;5.60;99.90;;;;;;4981445;28;20045;-84
2021/12/13 09:17:10;;;;;;;68.47;31.35;;;5.80;99.90;;;;;;4981699;28;20035;-85
2021/12/13 09:19:48;;;;;;;50.03;22.17;;;6.00;99.90;;;;;;4981742;28;20393;-85
2021/12/13 09:22:23;;;;;;;62.50;27.33;;;6.10;99.90;;;;;;4981590;28;20034;-85
2021/12/13 09:25:12;;;;;;;31.33;17.58;;;6.20;99.90;;;;;;4981192;28;20088;-85
2021/12/13 09:27:41;;;;;;;31.58;16.58;;;6.30;99.90;;;;;;4997777;28;20389;-85
2021/12/13 09:30:38;;;;;;;31.90;14.25;;;6.40;99.90;;;;;;4981372;28;20121;-85
2021/12/13 09:33:07;;;;;;;30.75;12.73;;;6.60;99.90;;;;;;4980980;28;20076;-85
2021/12/13 09:35:50;;;;;;;28.83;13.65;;;6.90;99.90;;;;;;4981407;28;20033;-84
2021/12/13 09:38:45;;;;;;;26.70;12.95;;;7.00;99.90;;;;;;4997593;28;20041;-85
2021/12/13 09:41:29;;;;;;;31.90;15.52;;;7.10;99.90;;;;;;4954065;28;20133;-84
2021/12/13 09:44:14;;;;;;;42.92;18.77;;;7.20;99.90;;;;;;4997153;28;20053;-85
2021/12/13 09:47:13;;;;;;;47.55;16.67;;;7.40;99.90;;;;;;4981141;28;20041;-85
2021/12/13 09:49:39;;;;;;;29.73;13.05;;;7.30;99.90;;;;;;4981521;28;20803;-85
2021/12/13 09:52:13;;;;;;;27.15;14.32;;;7.30;99.90;;;;;;4997121;28;20040;-84
2021/12/13 09:55:28;;;;;;;28.35;10.57;;;7.30;99.90;;;;;;4996946;28;20033;-84
2021/12/13 09:58:12;;;;;;;29.27;9.75;;;7.10;99.90;;;;;;4968459;28;20041;-85
2021/12/13 10:00:47;;;;;;;87.75;11.32;;;7.10;99.90;;;;;;4997484;28;20496;-85
2021/12/13 10:03:27;;;;;;;31.63;11.95;;;7.00;99.90;;;;;;4980699;28;20374;-84
2021/12/13 10:05:57;;;;;;;23.35;10.57;;;6.80;99.90;;;;;;4980796;28;20038;-84
2021/12/13 10:08:37;;;;;;;57.03;12.48;;;6.80;99.90;;;;;;4980526;28;20030;-84
2021/12/13 10:11:28;;;;;;;30.30;11.70;;;6.90;99.90;;;;;;4980772;28;20026;-84
2021/12/13 10:13:55;;;;;;;28.95;12.43;;;6.80;99.90;;;;;;4996534;28;20393;-84
2021/12/13 10:16:31;;;;;;;95.47;13.82;;;7.00;99.90;;;;;;4980659;28;20025;-84
2021/12/13 10:18:58;;;;;;;115.72;16.10;;;7.00;99.90;;;;;;4980661;28;20030;-85
2021/12/13 10:21:43;;;;;;;185.15;17.27;;;7.10;99.90;;;;;;4996583;28;20041;-84
2021/12/13 10:24:24;;;;;;;60.85;12.73;;;7.20;99.90;;;;;;4996581;28;20128;-85
2021/12/13 10:26:53;;;;;;;27.38;10.10;;;7.30;99.90;;;;;;4980535;28;20077;-84
2021/12/13 10:29:21;;;;;;;101.35;14.93;;;7.30;99.90;;;;;;4996701;28;20095;-85
2021/12/13 10:31:53;;;;;;;69.63;14.50;;;7.50;99.90;;;;;;4980077;28;20516;-85
2021/12/13 10:34:24;;;;;;;140.40;17.92;;;7.60;99.90;;;;;;4996208;28;20501;-85
2021/12/13 10:37:04;;;;;;;268.08;22.58;;;7.50;99.90;;;;;;4995939;28;20389;-85
2021/12/13 10:39:35;;;;;;;128.40;16.48;;;7.50;99.90;;;;;;4978440;28;20452;-84
2021/12/13 10:42:21;;;;;;;30.27;9.15;;;7.50;99.90;;;;;;4996123;28;20033;-85
2021/12/13 10:44:48;;;;;;;22.80;9.75;;;7.60;99.90;;;;;;4995697;28;20037;-85
2021/12/13 10:47:25;;;;;;;27.23;12.18;;;7.50;99.90;;;;;;4996082;28;20033;-85
2021/12/13 10:49:53;;;;;;;20.77;8.48;;;7.40;99.90;;;;;;4996148;28;20716;-84
2021/12/13 10:52:27;;;;;;;32.60;10.02;;;7.30;99.90;;;;;;4996197;28;20030;-84
2021/12/13 10:54:59;;;;;;;25.48;11.10;;;7.20;99.90;;;;;;4979848;28;20034;-84
2021/12/13 10:57:32;;;;;;;40.70;9.32;;;7.30;99.90;;;;;;5013621;28;20030;-84
2021/12/13 11:00:00;;;;;;;17.05;8.73;;;7.40;99.90;;;;;;4979189;28;20040;-85
2021/12/13 11:02:51;;;;;;;17.20;8.85;;;7.40;99.90;;;;;;4995655;28;20417;-85
2021/12/13 11:05:19;;;;;;;14.85;8.65;;;7.60;99.90;;;;;;4995955;28;20461;-84
2021/12/13 11:07:47;;;;;;;19.67;10.80;;;7.80;99.90;;;;;;4979882;28;20037;-84
2021/12/13 11:10:17;;;;;;;18.17;10.85;;;7.90;99.90;;;;;;4979452;28;20029;-84
2021/12/13 11:12:49;;;;;;;20.35;11.43;;;8.00;99.90;;;;;;4979830;28;20087;-84
2021/12/13 11:15:29;;;;;;;17.50;9.73;;;8.10;99.90;;;;;;4979757;28;20029;-85
2021/12/13 11:17:56;;;;;;;21.20;12.10;;;8.20;99.90;;;;;;4995865;28;20136;-84
2021/12/13 11:20:33;;;;;;;24.25;11.70;;;8.30;99.90;;;;;;4979593;28;20037;-84
2021/12/13 11:22:59;;;;;;;36.92;15.32;;;8.40;99.90;;;;;;4979521;28;20033;-84
2021/12/13 11:25:31;;;;;;;29.30;13.63;;;8.40;99.90;;;;;;4979385;28;20034;-85
2021/12/13 11:27:58;;;;;;;28.90;13.07;;;8.50;99.90;;;;;;4995516;28;20049;-85
2021/12/13 11:30:30;;;;;;;23.80;13.45;;;8.50;99.90;;;;;;4995552;28;20469;-85
2021/12/13 11:32:59;;;;;;;46.03;14.05;;;8.40;99.90;;;;;;4979767;28;20428;-85
2021/12/13 11:35:39;;;;;;;56.75;14.63;;;8.40;99.90;;;;;;4995537;28;20034;-85
2021/12/13 11:38:41;;;;;;;32.17;14.47;;;8.00;99.90;;;;;;4995539;28;20034;-85
2021/12/13 11:41:25;;;;;;;;;;;8.00;99.90;;;;;;4979831;28;20042;-85
2021/12/13 11:44:11;;;;;;;25.63;13.60;;;7.90;99.90;;;;;;4979122;28;19909;-85
2021/12/13 11:46:58;;;;;;;25.40;14.02;;;7.90;99.90;;;;;;4979358;28;20038;-84
2021/12/13 11:49:53;;;;;;;13.20;8.55;;;7.90;99.90;;;;;;5013043;28;20054;-84
2021/12/13 11:52:56;;;;;;;13.73;8.18;;;7.60;99.90;;;;;;4995432;28;20473;-85
2021/12/13 11:55:35;;;;;;;9.90;6.30;;;7.30;99.90;;;;;;5011596;28;20041;-85
2021/12/13 11:58:28;;;;;;;18.95;10.27;;;7.20;99.90;;;;;;4994945;28;20026;-85
2021/12/13 12:01:43;;;;;;;18.45;10.88;;;7.20;99.90;;;;;;4995715;28;20133;-85
2021/12/13 12:04:46;;;;;;;15.90;10.07;;;7.20;99.90;;;;;;4995482;28;20034;-84
2021/12/13 12:07:31;;;;;;;11.75;6.30;;;7.30;99.90;;;;;;4995641;28;20087;-84
2021/12/13 12:10:24;;;;;;;3.35;1.88;;;7.30;99.90;;;;;;4995060;28;20376;-84
2021/12/13 12:13:32;;;;;;;7.35;2.50;;;7.20;99.90;;;;;;4998388;28;20481;-85
2021/12/13 12:16:02;;;;;;;4.75;2.70;;;7.20;99.90;;;;;;4998883;28;20065;-85
2021/12/13 12:18:30;;;;;;;12.32;5.43;;;7.30;99.90;;;;;;4998780;28;20126;-85
2021/12/13 12:21:33;;;;;;;8.13;3.63;;;7.40;99.90;;;;;;4982786;28;20486;-85
2021/12/13 12:24:12;;;;;;;5.63;3.20;;;7.60;99.90;;;;;;4998503;28;20041;-85
2021/12/13 12:26:39;;;;;;;9.65;6.38;;;7.70;99.90;;;;;;4998760;28;20034;-85
2021/12/13 12:29:14;;;;;;;3.58;1.73;;;7.90;99.90;;;;;;4998928;28;20113;-85
2021/12/13 12:31:49;;;;;;;3.42;1.55;;;8.00;99.90;;;;;;4998436;28;20041;-85
2021/12/13 12:34:15;;;;;;;7.57;4.50;;;8.10;99.90;;;;;;4998523;28;20076;-85
2021/12/13 12:37:07;;;;;;;2.88;1.40;;;8.10;99.90;;;;;;4998851;28;20029;-86
2021/12/13 12:39:35;;;;;;;2.22;1.27;;;7.90;99.90;;;;;;4998053;28;20545;-85
2021/12/13 12:42:05;;;;;;;2.65;1.70;;;7.90;99.90;;;;;;4998323;28;20123;-83
2021/12/13 12:44:41;;;;;;;3.08;1.17;;;8.00;99.90;;;;;;4998366;28;20109;-83
2021/12/13 12:47:10;;;;;;;3.80;1.83;;;7.90;99.90;;;;;;4998464;28;20034;-83
2021/12/13 12:49:36;;;;;;;3.20;2.00;;;7.70;99.90;;;;;;4998203;28;20041;-83
2021/12/13 12:52:05;;;;;;;7.47;4.03;;;7.50;99.90;;;;;;4998386;28;20026;-84
2021/12/13 12:54:36;;;;;;;10.18;5.10;;;7.50;99.90;;;;;;4981629;28;20033;-83
2021/12/13 12:57:05;;;;;;;7.53;3.70;;;7.50;99.90;;;;;;4998394;28;20026;-83
2021/12/13 12:59:37;;;;;;;4.78;2.05;;;7.60;99.90;;;;;;4982265;28;20330;-83
2021/12/13 13:02:10;;;;;;;4.97;2.42;;;7.70;99.90;;;;;;4982621;28;20030;-83
2021/12/13 13:04:42;;;;;;;4.22;1.60;;;7.70;99.90;;;;;;4998789;28;20092;-83
2021/12/13 13:07:20;;;;;;;4.20;1.80;;;7.70;99.90;;;;;;4998704;28;20034;-84
2021/12/13 13:09:53;;;;;;;12.88;5.70;;;7.70;99.90;;;;;;4981852;28;20029;-85
2021/12/13 13:13:10;;;;;;;47.50;26.00;;;7.90;99.90;;;;;;4998362;28;20034;-85
2021/12/13 13:15:42;;;;;;;5.63;2.65;;;7.90;99.90;;;;;;4969994;28;20052;-86
2021/12/13 13:18:15;;;;;;;16.67;6.25;;;8.00;99.90;;;;;;4982228;28;20132;-85
2021/12/13 13:20:47;;;;;;;3.17;1.40;;;7.90;99.90;;;;;;4998302;28;20042;-85
2021/12/13 13:23:14;;;;;;;6.43;3.10;;;8.00;99.90;;;;;;4997584;28;20029;-85
2021/12/13 13:25:59;;;;;;;2.35;1.73;;;8.00;99.90;;;;;;4997797;28;20120;-83
2021/12/13 13:28:30;;;;;;;1.67;0.80;;;8.00;99.90;;;;;;4998202;28;20429;-83
2021/12/13 13:31:16;;;;;;;4.68;1.80;;;8.10;99.90;;;;;;4997976;28;20116;-83
2021/12/13 13:33:46;;;;;;;3.85;2.25;;;8.00;99.90;;;;;;5015218;28;20034;-84
2021/12/13 13:36:39;;;;;;;1.50;1.13;;;7.90;99.90;;;;;;4981920;28;20030;-84
2021/12/13 13:39:22;;;;;;;9.15;4.68;;;7.90;99.90;;;;;;4961461;28;20458;-83
2021/12/13 13:41:55;;;;;;;2.00;0.90;;;7.70;99.90;;;;;;4996732;28;20054;-83
2021/12/13 13:44:24;;;;;;;1.70;0.57;;;7.70;99.90;;;;;;4996091;28;20476;-83
2021/12/13 13:47:01;;;;;;;2.60;1.02;;;7.70;99.90;;;;;;4997451;28;20034;-83